Tuesday, January 16, 2018, 12:15 PM EST
Back to Local

KVSF, Hartness State Airport

Location: Perkinsville, VT, United States Lat: 43.35
Local Time: 12:15 PM EST (17:15 GMT) Lon: -72.517
Time Zone: US/Eastern Elev: 577 ft

Show me the last for .
Show Decoded

2018-01-16 11:54 METAR KVSF 161654Z AUTO 14003KT 10SM BKN041 OVC047 M04/M09 A3043 RMK AO2 SLP314
                 T10441089 =
2018-01-16 10:54 METAR KVSF 161554Z AUTO 00000KT 10SM BKN042 M05/M09 A3046 RMK AO2 SLP326
                 T10501094 =
2018-01-16 09:54 METAR KVSF 161454Z AUTO 00000KT 10SM OVC034 M08/M11 A3048 RMK AO2 SLP334 60000
                 T10781106 51004 =
2018-01-16 08:54 METAR KVSF 161354Z AUTO 00000KT 10SM FEW021 OVC033 M08/M11 A3048 RMK AO2 SLP334
                 T10831111 =
2018-01-16 07:54 METAR KVSF 161254Z AUTO 00000KT 10SM OVC035 M09/M12 A3047 RMK AO2 SNE1158 SLP331
                 P0000 T10891117 =
2018-01-16 06:54 METAR KVSF 161154Z AUTO 00000KT 7SM -SN SCT047 OVC110 M09/M11 A3047 RMK AO2
                 SNB19 SLP330 P0000 60000 T10941111 11083 21094 50000 =
2018-01-16 05:54 METAR KVSF 161054Z AUTO 00000KT 8SM FEW047 OVC100 M09/M12 A3047 RMK AO2 SNB20E44
                 SLP329 P0000 T10891117 =
2018-01-16 04:54 METAR KVSF 160954Z AUTO 00000KT 7SM BKN045 OVC070 M09/M12 A3047 RMK AO2
                 SNB0856E27 SLP332 P0000 T10891117 =
2018-01-16 03:54 METAR KVSF 160854Z AUTO 00000KT 9SM OVC048 M09/M12 A3047 RMK AO2 SNB38E52 SLP330
                 P0000 60000 T10891122 56006 =
2018-01-16 02:54 METAR KVSF 160754Z AUTO 00000KT 10SM OVC044 M09/M12 A3047 RMK AO2 SLP330
                 T10941122 =
2018-01-16 01:54 METAR KVSF 160654Z AUTO 00000KT 10SM OVC043 M09/M13 A3048 RMK AO2 SLP334
                 T10891128 =
2018-01-16 00:54 METAR KVSF 160554Z AUTO 00000KT 10SM BKN030 OVC042 M09/M13 A3049 RMK AO2 SLP336
                 T10891133 11078 21089 56021 =
2018-01-15 23:54 METAR KVSF 160454Z AUTO 00000KT 10SM OVC032 M08/M14 A3051 RMK AO2 SLP343
                 T10831139 410721189 =
2018-01-15 22:54 METAR KVSF 160354Z AUTO 00000KT 10SM OVC031 M08/M16 A3053 RMK AO2 SLP351
                 T10831156 =
2018-01-15 21:54 METAR KVSF 160254Z AUTO 00000KT 10SM OVC030 M08/M15 A3055 RMK AO2 SLP359
                 T10831150 55010 =
2018-01-15 20:54 METAR KVSF 160154Z AUTO 00000KT 10SM OVC030 M08/M16 A3055 RMK AO2 SLP358
                 T10781161 =
2018-01-15 19:54 METAR KVSF 160054Z AUTO 00000KT 10SM OVC033 M08/M17 A3056 RMK AO2 SLP363
                 T10781167 =
2018-01-15 18:54 METAR KVSF 152354Z AUTO 00000KT 10SM OVC034 M08/M16 A3058 RMK AO2 SLP371
                 T10781156 11072 21094 56006 =
2018-01-15 17:54 METAR KVSF 152254Z AUTO 00000KT 10SM OVC032 M08/M16 A3059 RMK AO2 SLP372
                 T10781161 =
2018-01-15 16:54 METAR KVSF 152154Z AUTO 00000KT 10SM OVC031 M07/M19 A3058 RMK AO2 SLP371
                 T10721189 =
2018-01-15 15:54 METAR KVSF 152054Z AUTO 09004KT 10SM OVC032 M08/M19 A3060 RMK AO2 SLP376
                 T10781194 56019 =
2018-01-15 14:54 METAR KVSF 151954Z AUTO 00000KT 10SM CLR M08/M19 A3060 RMK AO2 SLP377 T10781194
                 =
2018-01-15 13:54 METAR KVSF 151854Z AUTO 00000KT 10SM CLR M09/M20 A3061 RMK AO2 SLP383 T10891200
                 =
2018-01-15 12:54 METAR KVSF 151754Z AUTO 00000KT 10SM CLR M09/M19 A3065 RMK AO2 SLP396 T10891194
                 11089 21189 58038 =

Support USWX by starting your Amazon purchase here.